Bluefin — WDE9397 — position and weather

sailwx.info

Track history (hours):
 
Tides and Currents Weather Stations Pressure Air Temp Water Temp Dewpoint Dewpoint Depression Visibility Wind Speed Wind Dir Waves Ship Positions

Bluefin

More information available from US FCC via Universal Licensing System and Coast Guard Vessel Documentation Center.

Last reported at 2014-Sep-02 05:33 UTC. Time now 2014-Sep-03 00:11 UTC.
Position N 40°44' W 074°01'.

Length 166 m; draft 3.4 m.

Type: Towing. MMSI: 367416750.

Date/timePositionNaut miles runAvg speedWind from/ knotsBaromVisibWave heightAir tempDewpointWater temp
2014-Sep-02 05:33N 40°44' W 074°01'9 8.8
2014-Sep-02 04:30N 40°35' W 074°02'10 9.5
2014-Sep-02 03:29N 40°28' W 073°53'1010.0
2014-Sep-02 02:32N 40°19' W 073°55'1010.4
2014-Sep-02 01:34N 40°09' W 073°55'1010.3
2014-Sep-02 00:33N 39°58' W 073°57'1010.2
2014-Sep-01 23:33N 39°48' W 073°58'1010.0
2014-Sep-01 22:33N 39°39' W 074°03'10 9.7
2014-Sep-01 21:33N 39°30' W 074°09'54 1.9
2014-Aug-31 16:27N 39°51' W 075°14'0 0.0
2014-Aug-31 15:30N 39°51' W 075°14'0 0.0
2014-Aug-31 14:33N 39°51' W 075°14'0 0.0
2014-Aug-31 09:15N 39°51' W 075°14'0 0.0
2014-Aug-31 08:33N 39°51' W 075°14'0 0.0
2014-Aug-31 06:24N 39°51' W 075°14'0 0.0
2014-Aug-31 04:33N 39°51' W 075°14'0 0.0
2014-Aug-30 19:33N 39°51' W 075°14'0 0.0
2014-Aug-30 11:12N 39°51' W 075°14'0 0.1
2014-Aug-30 09:27N 39°51' W 075°14'0 0.0
2014-Aug-30 08:09N 39°51' W 075°14'54 1.5
2014-Aug-28 19:32N 39°26' W 074°12'1110.9
2014-Aug-28 18:33N 39°36' W 074°05'1111.0
2014-Aug-28 17:33N 39°46' W 073°59'1510.8
2014-Aug-28 16:12N 40°00' W 073°57'710.8
2014-Aug-28 15:33N 40°07' W 073°56'1110.7
2014-Aug-28 14:33N 40°18' W 073°55'1110.6
2014-Aug-28 13:33N 40°28' W 073°53'9 9.1
2014-Aug-28 12:33N 40°35' W 074°02'1110.6
2014-Aug-28 11:33N 40°45' W 074°01'1412.7
2014-Aug-28 10:29N 40°58' W 073°54'1212.2
2014-Aug-28 09:31N 41°09' W 073°54'21 9.8
2014-Aug-28 07:24N 41°30' W 074°00'3 0.1
2014-Aug-27 05:25N 41°27' W 073°59'8 9.4
2014-Aug-27 04:33N 41°18' W 073°58'8 8.0
2014-Aug-27 03:33N 41°11' W 073°56'9 8.4
2014-Aug-27 02:31N 41°02' W 073°53'1010.0
2014-Aug-27 01:34N 40°53' W 073°56'1312.7
2014-Aug-27 00:33N 40°41' W 074°02'9 8.9
2014-Aug-26 23:34N 40°32' W 074°01'1110.8
2014-Aug-26 22:33N 40°29' W 073°47'1110.7
2014-Aug-26 21:33N 40°30' W 073°33'1111.0
2014-Aug-26 20:33N 40°30' W 073°19'1111.1
2014-Aug-26 19:33N 40°31' W 073°04'1110.9
2014-Aug-26 18:33N 40°35' W 072°51'1110.8
2014-Aug-26 17:33N 40°39' W 072°38'1110.9
2014-Aug-26 16:33N 40°44' W 072°25'1111.0
2014-Aug-26 15:33N 40°49' W 072°12'1110.9
2014-Aug-26 14:33N 40°53' W 071°59'1111.2
2014-Aug-26 13:33N 40°58' W 071°45'1111.3
2014-Aug-26 12:33N 41°03' W 071°32'1010.1
2014-Aug-26 11:33N 41°12' W 071°25'1110.8
2014-Aug-26 10:33N 41°23' W 071°24'1010.0
2014-Aug-26 09:33N 41°32' W 071°20'1010.0
2014-Aug-26 08:33N 41°42' W 071°20'6 6.1
2014-Aug-26 07:33N 41°48' W 071°23'0 0.0
2014-Aug-26 06:33N 41°48' W 071°23'0 0.0
2014-Aug-26 05:33N 41°48' W 071°23'0 0.0
2014-Aug-26 04:33N 41°48' W 071°23'0 0.0
2014-Aug-26 03:33N 41°48' W 071°23'0 0.0
2014-Aug-26 02:33N 41°48' W 071°23'0 0.0
2014-Aug-26 01:33N 41°48' W 071°23'0 0.0
2014-Aug-26 00:33N 41°48' W 071°23'0 0.0
2014-Aug-25 23:33N 41°48' W 071°23'0 0.0
2014-Aug-25 22:33N 41°48' W 071°23'0 0.1
2014-Aug-25 21:33N 41°48' W 071°23'8 8.0
2014-Aug-25 20:33N 41°41' W 071°19'1010.2
2014-Aug-25 19:33N 41°31' W 071°21'1010.0
2014-Aug-25 18:33N 41°21' W 071°22'1010.2
2014-Aug-25 17:33N 41°10' W 071°23'9 9.3
2014-Aug-25 16:33N 41°03' W 071°30'1010.2
2014-Aug-25 15:33N 40°56' W 071°40'1010.0
2014-Aug-25 14:33N 40°49' W 071°50'1010.1
2014-Aug-25 13:33N 40°43' W 072°00'1010.0
2014-Aug-25 12:33N 40°37' W 072°10'10 9.8
2014-Aug-25 11:33N 40°30' W 072°20'10 9.7
2014-Aug-25 10:33N 40°24' W 072°30'10 9.7
2014-Aug-25 09:33N 40°18' W 072°40'10 9.8
2014-Aug-25 08:33N 40°11' W 072°50'10 9.9
2014-Aug-25 07:32N 40°05' W 072°60'10 9.8
2014-Aug-25 06:29N 39°59' W 073°10'19 9.8
2014-Aug-25 04:33N 39°46' W 073°29'10 9.7
2014-Aug-25 03:30N 39°40' W 073°39'10 9.7
2014-Aug-25 02:31N 39°33' W 073°49'80 6.1
2014-Aug-24 13:25N 39°33' W 075°33'18 8.8
2014-Aug-24 11:24N 39°49' W 075°23'7 6.9
2014-Aug-24 10:20N 39°51' W 075°14'0 0.0
2014-Aug-24 09:16N 39°51' W 075°14'0 0.0
2014-Aug-24 08:11N 39°51' W 075°14'0 0.0
2014-Aug-24 06:31N 39°51' W 075°14'  
Track history (hours):
 
Tides and Currents Weather Stations Pressure Air Temp Water Temp Dewpoint Dewpoint Depression Visibility Wind Speed Wind Dir Waves Ship Positions

Bluefin

More information available from US FCC via Universal Licensing System and Coast Guard Vessel Documentation Center.

Last reported at 2014-Sep-02 05:33 UTC. Time now 2014-Sep-03 00:11 UTC.
Position N 40°44' W 074°01'.

Length 166 m; draft 3.4 m.

Type: Towing. MMSI: 367416750.

Date/timePositionNaut miles runAvg speedWind from/ knotsBaromVisibWave heightAir tempDewpointWater temp
2014-Sep-02 05:33N 40°44' W 074°01'9 8.8
2014-Sep-02 04:30N 40°35' W 074°02'10 9.5
2014-Sep-02 03:29N 40°28' W 073°53'1010.0
2014-Sep-02 02:32N 40°19' W 073°55'1010.4
2014-Sep-02 01:34N 40°09' W 073°55'1010.3
2014-Sep-02 00:33N 39°58' W 073°57'1010.2
2014-Sep-01 23:33N 39°48' W 073°58'1010.0
2014-Sep-01 22:33N 39°39' W 074°03'10 9.7
2014-Sep-01 21:33N 39°30' W 074°09'54 1.9
2014-Aug-31 16:27N 39°51' W 075°14'0 0.0
2014-Aug-31 15:30N 39°51' W 075°14'0 0.0
2014-Aug-31 14:33N 39°51' W 075°14'0 0.0
2014-Aug-31 09:15N 39°51' W 075°14'0 0.0
2014-Aug-31 08:33N 39°51' W 075°14'0 0.0
2014-Aug-31 06:24N 39°51' W 075°14'0 0.0
2014-Aug-31 04:33N 39°51' W 075°14'0 0.0
2014-Aug-30 19:33N 39°51' W 075°14'0 0.0
2014-Aug-30 11:12N 39°51' W 075°14'0 0.1
2014-Aug-30 09:27N 39°51' W 075°14'0 0.0
2014-Aug-30 08:09N 39°51' W 075°14'54 1.5
2014-Aug-28 19:32N 39°26' W 074°12'1110.9
2014-Aug-28 18:33N 39°36' W 074°05'1111.0
2014-Aug-28 17:33N 39°46' W 073°59'1510.8
2014-Aug-28 16:12N 40°00' W 073°57'710.8
2014-Aug-28 15:33N 40°07' W 073°56'1110.7
2014-Aug-28 14:33N 40°18' W 073°55'1110.6
2014-Aug-28 13:33N 40°28' W 073°53'9 9.1
2014-Aug-28 12:33N 40°35' W 074°02'1110.6
2014-Aug-28 11:33N 40°45' W 074°01'1412.7
2014-Aug-28 10:29N 40°58' W 073°54'1212.2
2014-Aug-28 09:31N 41°09' W 073°54'21 9.8
2014-Aug-28 07:24N 41°30' W 074°00'3 0.1
2014-Aug-27 05:25N 41°27' W 073°59'8 9.4
2014-Aug-27 04:33N 41°18' W 073°58'8 8.0
2014-Aug-27 03:33N 41°11' W 073°56'9 8.4
2014-Aug-27 02:31N 41°02' W 073°53'1010.0
2014-Aug-27 01:34N 40°53' W 073°56'1312.7
2014-Aug-27 00:33N 40°41' W 074°02'9 8.9
2014-Aug-26 23:34N 40°32' W 074°01'1110.8
2014-Aug-26 22:33N 40°29' W 073°47'1110.7
2014-Aug-26 21:33N 40°30' W 073°33'1111.0
2014-Aug-26 20:33N 40°30' W 073°19'1111.1
2014-Aug-26 19:33N 40°31' W 073°04'1110.9
2014-Aug-26 18:33N 40°35' W 072°51'1110.8
2014-Aug-26 17:33N 40°39' W 072°38'1110.9
2014-Aug-26 16:33N 40°44' W 072°25'1111.0
2014-Aug-26 15:33N 40°49' W 072°12'1110.9
2014-Aug-26 14:33N 40°53' W 071°59'1111.2
2014-Aug-26 13:33N 40°58' W 071°45'1111.3
2014-Aug-26 12:33N 41°03' W 071°32'1010.1
2014-Aug-26 11:33N 41°12' W 071°25'1110.8
2014-Aug-26 10:33N 41°23' W 071°24'1010.0
2014-Aug-26 09:33N 41°32' W 071°20'1010.0
2014-Aug-26 08:33N 41°42' W 071°20'6 6.1
2014-Aug-26 07:33N 41°48' W 071°23'0 0.0
2014-Aug-26 06:33N 41°48' W 071°23'0 0.0
2014-Aug-26 05:33N 41°48' W 071°23'0 0.0
2014-Aug-26 04:33N 41°48' W 071°23'0 0.0
2014-Aug-26 03:33N 41°48' W 071°23'0 0.0
2014-Aug-26 02:33N 41°48' W 071°23'0 0.0
2014-Aug-26 01:33N 41°48' W 071°23'0 0.0
2014-Aug-26 00:33N 41°48' W 071°23'0 0.0
2014-Aug-25 23:33N 41°48' W 071°23'0 0.0
2014-Aug-25 22:33N 41°48' W 071°23'0 0.1
2014-Aug-25 21:33N 41°48' W 071°23'8 8.0
2014-Aug-25 20:33N 41°41' W 071°19'1010.2
2014-Aug-25 19:33N 41°31' W 071°21'1010.0
2014-Aug-25 18:33N 41°21' W 071°22'1010.2
2014-Aug-25 17:33N 41°10' W 071°23'9 9.3
2014-Aug-25 16:33N 41°03' W 071°30'1010.2
2014-Aug-25 15:33N 40°56' W 071°40'1010.0
2014-Aug-25 14:33N 40°49' W 071°50'1010.1
2014-Aug-25 13:33N 40°43' W 072°00'1010.0
2014-Aug-25 12:33N 40°37' W 072°10'10 9.8
2014-Aug-25 11:33N 40°30' W 072°20'10 9.7
2014-Aug-25 10:33N 40°24' W 072°30'10 9.7
2014-Aug-25 09:33N 40°18' W 072°40'10 9.8
2014-Aug-25 08:33N 40°11' W 072°50'10 9.9
2014-Aug-25 07:32N 40°05' W 072°60'10 9.8
2014-Aug-25 06:29N 39°59' W 073°10'19 9.8
2014-Aug-25 04:33N 39°46' W 073°29'10 9.7
2014-Aug-25 03:30N 39°40' W 073°39'10 9.7
2014-Aug-25 02:31N 39°33' W 073°49'80 6.1
2014-Aug-24 13:25N 39°33' W 075°33'18 8.8
2014-Aug-24 11:24N 39°49' W 075°23'7 6.9
2014-Aug-24 10:20N 39°51' W 075°14'0 0.0
2014-Aug-24 09:16N 39°51' W 075°14'0 0.0
2014-Aug-24 08:11N 39°51' W 075°14'0 0.0
2014-Aug-24 06:31N 39°51' W 075°14'  

Dump ship's entire track history